Time;durP1;ratioP1;P1;durP2;ratioP2;P2;SDS_P1;SDS_P2;PMS_P1;PMS_P2;Temp;Humidity;BMP_temperature;BMP_pressure;BME280_temperature;BME280_humidity;BME280_pressure;Samples;Min_cycle;Max_cycle;Signal;HPM_P1;HPM_P2
2022/11/28 00:00:14;;;;;;;;;;;18.90;68.80;;;;;;4446105;32;19974;-81
2022/11/28 00:02:40;;;;;;;;;;;18.90;68.00;;;;;;4446012;32;20399;-81
2022/11/28 00:05:06;;;;;;;;;;;18.90;68.00;;;;;;4445768;32;19970;-81
2022/11/28 00:07:31;;;;;;;;;;;18.80;67.90;;;;;;4445999;32;19991;-80
2022/11/28 00:09:57;;;;;;;;;;;18.80;67.90;;;;;;4432054;32;20069;-79
2022/11/28 00:12:23;;;;;;;;;;;18.80;67.90;;;;;;4447780;32;20096;-81
2022/11/28 00:14:48;;;;;;;;;;;18.80;67.90;;;;;;4451054;32;20092;-80
2022/11/28 00:17:14;;;;;;;;;;;18.80;67.90;;;;;;4451012;32;20127;-80
2022/11/28 00:19:40;;;;;;;;;;;18.70;67.80;;;;;;4451014;32;20052;-80
2022/11/28 00:22:05;;;;;;;;;;;18.70;67.80;;;;;;4451029;32;19977;-81
2022/11/28 00:24:31;;;;;;;;;;;18.70;67.80;;;;;;4436862;32;20028;-80
2022/11/28 00:26:56;;;;;;;;;;;18.70;67.80;;;;;;4451068;32;20327;-80
2022/11/28 00:29:22;;;;;;;;;;;18.70;67.80;;;;;;4437194;32;19966;-82
2022/11/28 00:31:48;;;;;;;;;;;18.70;67.80;;;;;;4451043;32;20125;-81
2022/11/28 00:34:14;;;;;;;;;;;18.70;67.80;;;;;;4450704;32;19977;-80
2022/11/28 00:36:41;;;;;;;;;;;18.70;67.80;;;;;;4450764;32;19993;-81
2022/11/28 00:39:07;;;;;;;;;;;18.70;67.80;;;;;;4450785;32;19982;-81
2022/11/28 00:41:35;;;;;;;;;;;18.70;67.80;;;;;;4450037;32;19986;-81
2022/11/28 00:44:01;;;;;;;;;;;18.70;67.80;;;;;;4450463;32;20005;-81
2022/11/28 00:46:27;;;;;;;;;;;18.60;67.80;;;;;;4450496;32;20025;-81
2022/11/28 00:48:53;;;;;;;;;;;18.60;67.70;;;;;;4450251;32;19979;-81
2022/11/28 00:51:20;;;;;;;;;;;18.60;67.70;;;;;;4450766;32;19986;-80
2022/11/28 00:53:46;;;;;;;;;;;18.60;67.70;;;;;;4450460;32;20009;-81
2022/11/28 00:56:13;;;;;;;;;;;18.60;67.70;;;;;;4450490;32;20113;-80
2022/11/28 00:58:39;;;;;;;;;;;18.60;67.70;;;;;;4450555;32;20388;-81
2022/11/28 01:01:07;;;;;;;;;;;18.60;67.70;;;;;;4450349;32;19974;-81
2022/11/28 01:03:32;;;;;;;;;;;18.60;67.70;;;;;;4450539;32;20017;-81
2022/11/28 01:05:58;;;;;;;;;;;18.60;67.70;;;;;;4450521;32;20176;-81
2022/11/28 01:08:24;;;;;;;;;;;18.60;67.70;;;;;;4450485;32;20105;-81
2022/11/28 01:10:49;;;;;;;;;;;18.50;67.70;;;;;;4450420;32;20092;-80
2022/11/28 01:13:15;;;;;;;;;;;18.60;68.60;;;;;;4450378;32;20017;-81
2022/11/28 01:15:41;;;;;;;;;;;18.50;67.70;;;;;;4450473;32;20033;-81
2022/11/28 01:18:07;;;;;;;;;;;18.50;67.70;;;;;;4450472;32;20403;-82
2022/11/28 01:20:32;;;;;;;;;;;18.50;67.70;;;;;;4450404;32;20377;-81
2022/11/28 01:22:58;;;;;;;;;;;18.50;67.70;;;;;;4449687;32;20017;-81
2022/11/28 01:25:24;;;;;;;;;;;18.50;67.70;;;;;;4447513;32;20332;-81
2022/11/28 01:27:49;;;;;;;;;;;18.50;67.70;;;;;;4448122;32;20044;-81
2022/11/28 01:30:15;;;;;;;;;;;18.50;67.70;;;;;;4448027;32;19970;-81
2022/11/28 01:32:41;;;;;;;;;;;18.40;67.60;;;;;;4434149;32;19966;-80
2022/11/28 01:35:06;;;;;;;;;;;18.40;67.70;;;;;;4447708;32;19974;-81
2022/11/28 01:37:32;;;;;;;;;;;18.40;67.70;;;;;;4448227;32;19974;-81
2022/11/28 01:39:58;;;;;;;;;;;18.40;67.60;;;;;;4449091;32;20018;-81
2022/11/28 01:42:23;;;;;;;;;;;18.40;67.60;;;;;;4448333;32;19986;-81
2022/11/28 01:44:49;;;;;;;;;;;18.40;67.70;;;;;;4449132;32;19982;-81
2022/11/28 01:47:17;;;;;;;;;;;18.40;67.70;;;;;;4448503;32;19967;-81
2022/11/28 01:49:44;;;;;;;;;;;18.40;67.70;;;;;;4434799;32;20057;-80
2022/11/28 01:52:11;;;;;;;;;;;18.40;67.70;;;;;;4448525;32;20104;-81
2022/11/28 01:54:38;;;;;;;;;;;18.40;67.70;;;;;;4448484;32;20032;-81
2022/11/28 01:57:05;;;;;;;;;;;18.40;67.70;;;;;;4448567;32;20442;-81
2022/11/28 01:59:33;;;;;;;;;;;18.40;67.60;;;;;;4448339;32;20033;-80
2022/11/28 02:02:02;;;;;;;;;;;18.40;67.60;;;;;;4448307;32;19971;-83
2022/11/28 02:04:28;;;;;;;;;;;18.30;67.70;;;;;;4448823;32;20159;-80
2022/11/28 02:06:54;;;;;;;;;;;18.30;67.70;;;;;;4448764;32;20315;-81
2022/11/28 02:09:19;;;;;;;;;;;18.30;67.70;;;;;;4448844;32;19966;-81
2022/11/28 02:12:08;;;;;;;;;;;18.30;67.60;;;;;;4448430;32;20022;-81
2022/11/28 02:14:51;;;;;;;;;;;18.30;67.60;;;;;;4425668;32;20324;-81
2022/11/28 02:17:20;;;;;;;;;;;18.30;67.70;;;;;;4448394;32;20507;-80
2022/11/28 02:19:57;;;;;;;;;;;18.30;67.60;;;;;;4448452;32;20398;-82
2022/11/28 02:22:42;;;;;;;;;;;18.30;67.60;;;;;;4448840;32;20375;-81
2022/11/28 02:25:11;;;;;;;;;;;18.30;67.70;;;;;;4448559;32;20116;-81
2022/11/28 02:27:43;;;;;;;;;;;18.30;67.70;;;;;;4447962;32;19986;-81
2022/11/28 02:30:19;;;;;;;;;;;18.20;67.60;;;;;;4447869;32;20010;-81
2022/11/28 02:32:55;;;;;;;;;;;18.20;67.60;;;;;;4447621;32;20051;-81
2022/11/28 02:35:39;;;;;;;;;;;18.20;67.60;;;;;;4446368;32;19974;-81
2022/11/28 02:38:13;;;;;;;;;;;18.20;67.60;;;;;;4447203;32;20105;-81
2022/11/28 02:40:47;;;;;;;;;;;18.20;67.60;;;;;;4446902;32;20140;-80
2022/11/28 02:43:22;;;;;;;;;;;18.20;67.60;;;;;;4447029;32;19994;-81
2022/11/28 02:45:54;;;;;;;;;;;18.20;67.60;;;;;;4447198;32;20088;-81
2022/11/28 02:48:30;;;;;;;;;;;18.20;67.70;;;;;;4446874;32;19982;-81
2022/11/28 02:51:01;;;;;;;;;;;18.20;67.70;;;;;;4447103;32;20321;-81
2022/11/28 02:53:28;;;;;;;;;;;18.10;67.60;;;;;;4446606;32;20101;-81
2022/11/28 02:55:55;;;;;;;;;;;18.10;67.70;;;;;;4446622;32;20001;-81
2022/11/28 02:58:21;;;;;;;;;;;18.10;67.70;;;;;;4446822;32;20470;-81
2022/11/28 03:00:49;;;;;;;;;;;18.10;67.60;;;;;;4446737;32;20121;-82
2022/11/28 03:03:30;;;;;;;;;;;18.10;67.70;;;;;;4446921;32;20334;-81
2022/11/28 03:06:18;;;;;;;;;;;18.10;67.70;;;;;;4446435;32;19975;-81
2022/11/28 03:09:02;;;;;;;;;;;18.10;67.70;;;;;;4446750;32;19978;-81
2022/11/28 03:11:46;;;;;;;;;;;18.10;67.70;;;;;;4446411;32;20331;-82
2022/11/28 03:14:21;;;;;;;;;;;18.10;67.70;;;;;;4446734;32;19983;-81
2022/11/28 03:17:10;;;;;;;;;;;18.00;67.60;;;;;;4446858;32;20447;-82
2022/11/28 03:19:41;;;;;;;;;;;18.00;67.70;;;;;;4446249;32;20041;-81
2022/11/28 03:22:33;;;;;;;;;;;18.00;67.70;;;;;;4446765;32;19983;-81
2022/11/28 03:25:11;;;;;;;;;;;18.00;67.70;;;;;;4427779;32;20034;-81
2022/11/28 03:27:39;;;;;;;;;;;18.00;67.60;;;;;;4446379;32;19983;-81
2022/11/28 03:30:10;;;;;;;;;;;18.00;67.70;;;;;;4446362;32;20403;-81
2022/11/28 03:32:38;;;;;;;;;;;18.00;67.60;;;;;;4446600;32;20002;-81
2022/11/28 03:35:10;;;;;;;;;;;18.00;67.60;;;;;;4446297;32;19974;-81
2022/11/28 03:37:38;;;;;;;;;;;18.00;67.60;;;;;;4446424;32;20049;-81
2022/11/28 03:40:06;;;;;;;;;;;18.00;67.60;;;;;;4432414;32;20046;-81
2022/11/28 03:42:34;;;;;;;;;;;18.00;67.60;;;;;;4446198;32;19991;-81
2022/11/28 03:45:05;;;;;;;;;;;18.00;67.60;;;;;;4445146;32;20414;-81
2022/11/28 03:47:33;;;;;;;;;;;18.00;67.60;;;;;;4445709;32;20419;-81
2022/11/28 03:50:01;;;;;;;;;;;17.90;67.60;;;;;;4446050;32;20063;-81
2022/11/28 03:52:28;;;;;;;;;;;17.90;67.60;;;;;;4445731;32;20100;-81
2022/11/28 03:54:56;;;;;;;;;;;17.90;67.50;;;;;;4446101;32;20414;-82
2022/11/28 03:57:33;;;;;;;;;;;17.90;67.50;;;;;;4445999;32;20392;-80
2022/11/28 04:00:01;;;;;;;;;;;17.90;67.50;;;;;;4446163;32;20022;-81
2022/11/28 04:02:39;;;;;;;;;;;17.90;67.60;;;;;;4445788;32;19985;-81
2022/11/28 04:05:21;;;;;;;;;;;17.90;67.50;;;;;;4445828;32;19997;-81
2022/11/28 04:07:56;;;;;;;;;;;17.90;67.50;;;;;;4445921;32;19986;-81
2022/11/28 04:10:30;;;;;;;;;;;17.90;67.50;;;;;;4446534;32;20400;-81
2022/11/28 04:13:03;;;;;;;;;;;17.80;67.50;;;;;;4445893;32;19974;-81
2022/11/28 04:15:36;;;;;;;;;;;17.90;67.50;;;;;;4445676;32;20028;-81
2022/11/28 04:18:05;;;;;;;;;;;17.80;67.50;;;;;;4446085;32;19985;-81
2022/11/28 04:20:50;;;;;;;;;;;17.80;68.30;;;;;;4445880;32;19989;-81
2022/11/28 04:23:17;;;;;;;;;;;17.80;67.50;;;;;;4445839;32;20311;-81
2022/11/28 04:25:49;;;;;;;;;;;17.80;67.50;;;;;;4446146;32;19966;-81
2022/11/28 04:28:17;;;;;;;;;;;17.80;67.50;;;;;;4445988;32;19982;-82
2022/11/28 04:30:45;;;;;;;;;;;17.80;67.50;;;;;;4445610;32;19983;-81
2022/11/28 04:33:12;;;;;;;;;;;17.80;67.50;;;;;;4445734;32;20137;-82
2022/11/28 04:35:43;;;;;;;;;;;17.80;67.50;;;;;;4445791;32;19990;-81
2022/11/28 04:38:09;;;;;;;;;;;17.80;67.50;;;;;;4445758;32;20505;-82
2022/11/28 04:40:37;;;;;;;;;;;17.80;67.60;;;;;;4445865;32;20507;-81
2022/11/28 04:43:07;;;;;;;;;;;17.80;67.50;;;;;;4445858;32;20324;-82
2022/11/28 04:45:35;;;;;;;;;;;17.80;67.60;;;;;;4445655;32;19971;-81
2022/11/28 04:48:01;;;;;;;;;;;17.80;67.60;;;;;;4445848;32;19990;-81
2022/11/28 04:50:31;;;;;;;;;;;17.80;67.50;;;;;;4445483;32;19990;-82
2022/11/28 04:53:04;;;;;;;;;;;17.80;67.50;;;;;;4445223;32;20053;-82
2022/11/28 04:55:42;;;;;;;;;;;17.80;67.60;;;;;;4445431;32;19978;-82
2022/11/28 04:58:17;;;;;;;;;;;17.70;67.60;;;;;;4446708;32;19990;-81
2022/11/28 05:00:44;;;;;;;;;;;17.70;67.50;;;;;;4448395;32;19981;-82
2022/11/28 05:03:10;;;;;;;;;;;17.70;67.50;;;;;;4448053;32;19971;-82
2022/11/28 05:05:40;;;;;;;;;;;17.70;67.50;;;;;;4448320;32;20013;-82
2022/11/28 05:08:06;;;;;;;;;;;17.70;67.50;;;;;;4448316;32;20032;-82
2022/11/28 05:10:32;;;;;;;;;;;17.70;67.40;;;;;;4434360;32;20109;-82
2022/11/28 05:12:57;;;;;;;;;;;17.70;67.40;;;;;;4447984;32;19985;-82
2022/11/28 05:15:23;;;;;;;;;;;17.70;67.50;;;;;;4447256;32;20048;-81
2022/11/28 05:17:49;;;;;;;;;;;17.70;67.50;;;;;;4448167;32;20010;-82
2022/11/28 05:20:14;;;;;;;;;;;17.70;67.40;;;;;;4448266;32;20033;-82
2022/11/28 05:22:40;;;;;;;;;;;17.70;67.40;;;;;;4448228;32;20097;-82
2022/11/28 05:25:06;;;;;;;;;;;17.70;67.40;;;;;;4447879;32;20408;-81
2022/11/28 05:27:31;;;;;;;;;;;17.70;67.30;;;;;;4448215;32;19975;-81
2022/11/28 05:29:57;;;;;;;;;;;17.70;67.30;;;;;;4448130;32;20111;-82
2022/11/28 05:32:23;;;;;;;;;;;17.70;67.40;;;;;;4448098;32;19967;-82
2022/11/28 05:34:48;;;;;;;;;;;17.70;67.40;;;;;;4447765;32;19999;-82
2022/11/28 05:37:14;;;;;;;;;;;17.70;67.40;;;;;;4447949;32;19982;-81
2022/11/28 05:39:40;;;;;;;;;;;17.70;67.30;;;;;;4448021;32;19990;-81
2022/11/28 05:42:05;;;;;;;;;;;17.70;67.30;;;;;;4447937;32;20056;-81
2022/11/28 05:44:31;;;;;;;;;;;17.70;67.30;;;;;;4447637;32;19981;-81
2022/11/28 05:46:57;;;;;;;;;;;17.70;67.30;;;;;;4447931;32;19970;-81
2022/11/28 05:49:24;;;;;;;;;;;17.70;67.40;;;;;;4447823;32;20421;-82
2022/11/28 05:51:50;;;;;;;;;;;17.70;67.30;;;;;;4447947;32;20057;-82
2022/11/28 05:54:15;;;;;;;;;;;17.70;67.40;;;;;;4447424;32;20315;-81
2022/11/28 05:56:41;;;;;;;;;;;17.60;67.30;;;;;;4447833;32;20068;-82
2022/11/28 05:59:07;;;;;;;;;;;17.70;68.20;;;;;;4447532;32;20375;-82
2022/11/28 06:01:32;;;;;;;;;;;17.60;67.30;;;;;;4447553;32;19963;-82
2022/11/28 06:03:59;;;;;;;;;;;17.60;67.30;;;;;;4447662;32;20378;-82
2022/11/28 06:06:27;;;;;;;;;;;17.60;67.30;;;;;;4447379;32;20415;-82
2022/11/28 06:08:53;;;;;;;;;;;17.60;67.30;;;;;;4447425;32;19991;-82
2022/11/28 06:11:22;;;;;;;;;;;17.60;67.30;;;;;;4446591;32;20030;-82
2022/11/28 06:13:48;;;;;;;;;;;17.60;68.10;;;;;;4447091;32;20036;-82
2022/11/28 06:16:15;;;;;;;;;;;17.60;67.40;;;;;;4447318;32;20501;-82
2022/11/28 06:18:41;;;;;;;;;;;17.60;67.40;;;;;;4447266;32;19971;-82
2022/11/28 06:21:07;;;;;;;;;;;17.60;67.40;;;;;;4447232;32;19977;-82
2022/11/28 06:23:33;;;;;;;;;;;17.60;67.40;;;;;;4447246;32;19971;-82
2022/11/28 06:26:03;;;;;;;;;;;17.60;67.30;;;;;;4447184;32;20049;-82
2022/11/28 06:28:28;;;;;;;;;;;17.60;67.40;;;;;;4446952;32;19974;-82
2022/11/28 06:30:54;;;;;;;;;;;17.60;67.30;;;;;;4447360;32;19976;-82
2022/11/28 06:33:19;;;;;;;;;;;17.60;67.40;;;;;;4447141;32;20112;-82
2022/11/28 06:35:45;;;;;;;;;;;17.60;67.40;;;;;;4447200;32;20164;-82
2022/11/28 06:38:11;;;;;;;;;;;17.50;67.30;;;;;;4447143;32;20116;-82
2022/11/28 06:40:37;;;;;;;;;;;17.50;67.30;;;;;;4447306;32;19963;-82
2022/11/28 06:43:03;;;;;;;;;;;17.50;67.30;;;;;;4446773;32;20036;-82
2022/11/28 06:45:28;;;;;;;;;;;17.50;67.40;;;;;;4446986;32;20124;-82
2022/11/28 06:47:54;;;;;;;;;;;17.50;67.30;;;;;;4447266;32;19967;-82
2022/11/28 06:50:20;;;;;;;;;;;17.50;67.30;;;;;;4446882;32;20295;-82
2022/11/28 06:52:47;;;;;;;;;;;17.50;67.40;;;;;;4432813;32;19978;-82
2022/11/28 06:55:12;;;;;;;;;;;17.50;67.40;;;;;;4446391;32;19978;-82
2022/11/28 06:57:38;;;;;;;;;;;17.50;67.40;;;;;;4447121;32;19981;-82
2022/11/28 07:00:04;;;;;;;;;;;17.50;67.40;;;;;;4447108;32;20025;-82
2022/11/28 07:02:31;;;;;;;;;;;17.50;67.40;;;;;;4446829;32;20068;-82
2022/11/28 07:04:56;;;;;;;;;;;17.50;67.40;;;;;;4446774;32;20029;-82
2022/11/28 07:07:23;;;;;;;;;;;17.50;67.40;;;;;;4446843;32;19974;-82
2022/11/28 07:09:49;;;;;;;;;;;17.50;67.50;;;;;;4446682;32;20017;-82
2022/11/28 07:12:15;;;;;;;;;;;17.50;67.50;;;;;;4446589;32;20384;-82
2022/11/28 07:14:40;;;;;;;;;;;17.50;67.40;;;;;;4446696;32;19966;-82
2022/11/28 07:17:06;;;;;;;;;;;17.40;67.40;;;;;;4446576;32;20313;-82
2022/11/28 07:19:32;;;;;;;;;;;17.40;67.40;;;;;;4446294;32;19978;-82
2022/11/28 07:21:57;;;;;;;;;;;17.40;67.40;;;;;;4445415;32;20301;-83
2022/11/28 07:24:23;;;;;;;;;;;17.40;67.50;;;;;;4446261;32;19981;-82
2022/11/28 07:26:49;;;;;;;;;;;17.40;67.50;;;;;;4445937;32;20061;-82
2022/11/28 07:29:16;;;;;;;;;;;17.40;67.40;;;;;;4445931;32;19963;-82
2022/11/28 07:31:41;;;;;;;;;;;17.40;67.50;;;;;;4446194;32;20124;-87
2022/11/28 07:34:08;;;;;;;;;;;17.40;67.50;;;;;;4446370;32;20424;-84
2022/11/28 07:36:33;;;;;;;;;;;17.40;67.60;;;;;;4446362;32;20328;-82
2022/11/28 07:39:00;;;;;;;;;;;17.40;67.60;;;;;;4446058;32;20140;-83
2022/11/28 07:41:27;;;;;;;;;;;17.40;67.70;;;;;;4446093;32;20397;-84
2022/11/28 07:43:54;;;;;;;;;;;17.40;68.00;;;;;;4445975;32;19970;-84
2022/11/28 07:46:20;;;;;;;;;;;17.40;68.30;;;;;;4446263;32;19994;-84
2022/11/28 07:48:46;;;;;;;;;;;17.40;68.50;;;;;;4431911;32;19967;-84
2022/11/28 07:51:13;;;;;;;;;;;17.50;68.80;;;;;;4445920;32;19975;-85
2022/11/28 07:53:39;;;;;;;;;;;17.50;68.10;;;;;;4446504;32;20032;-86
2022/11/28 07:56:06;;;;;;;;;;;17.60;67.70;;;;;;4446253;32;19975;-85
2022/11/28 07:58:33;;;;;;;;;;;17.70;67.50;;;;;;4446445;32;20372;-85
2022/11/28 08:00:58;;;;;;;;;;;17.90;67.50;;;;;;4445991;32;19982;-87
2022/11/28 08:03:24;;;;;;;;;;;18.00;67.20;;;;;;4445754;32;19976;-86
2022/11/28 08:05:50;;;;;;;;;;;18.10;66.90;;;;;;4446361;32;19989;-85
2022/11/28 08:08:17;;;;;;;;;;;18.30;66.60;;;;;;4446244;32;20384;-85
2022/11/28 08:10:43;;;;;;;;;;;18.40;66.30;;;;;;4431986;32;19987;-85
2022/11/28 08:13:10;;;;;;;;;;;18.60;66.00;;;;;;4445905;32;20455;-84
2022/11/28 08:15:36;;;;;;;;;;;18.70;65.70;;;;;;4446036;32;19981;-85
2022/11/28 08:18:02;;;;;;;;;;;18.80;65.40;;;;;;4445909;32;20123;-85
2022/11/28 08:20:28;;;;;;;;;;;18.90;65.20;;;;;;4431746;32;19966;-86
2022/11/28 08:22:53;;;;;;;;;;;18.90;65.00;;;;;;4445850;32;20286;-85
2022/11/28 08:25:19;;;;;;;;;;;19.00;64.90;;;;;;4431945;32;20006;-83
2022/11/28 08:27:45;;;;;;;;;;;19.00;64.80;;;;;;4445534;32;20096;-84
2022/11/28 08:30:12;;;;;;;;;;;19.10;64.90;;;;;;4445861;32;20327;-85
2022/11/28 08:32:37;;;;;;;;;;;19.10;64.80;;;;;;4446007;32;20316;-84
2022/11/28 08:35:03;;;;;;;;;;;19.10;64.80;;;;;;4449178;32;19974;-84
2022/11/28 08:37:29;;;;;;;;;;;19.10;64.80;;;;;;4448937;32;20003;-82
2022/11/28 08:39:55;;;;;;;;;;;19.10;64.70;;;;;;4435115;32;19993;-83
2022/11/28 08:42:20;;;;;;;;;;;19.10;64.70;;;;;;4448783;32;20000;-82
2022/11/28 08:44:46;;;;;;;;;;;19.10;64.80;;;;;;4448772;32;19962;-84
2022/11/28 08:47:12;;;;;;;;;;;19.10;64.80;;;;;;4449003;32;19978;-82
2022/11/28 08:49:38;;;;;;;;;;;19.10;64.80;;;;;;4449203;32;20332;-83
2022/11/28 08:52:04;;;;;;;;;;;19.20;64.80;;;;;;4448643;32;19975;-84
2022/11/28 08:54:30;;;;;;;;;;;19.20;64.80;;;;;;4448665;32;19990;-84
2022/11/28 08:56:57;;;;;;;;;;;19.20;64.90;;;;;;4448137;32;19971;-83
2022/11/28 08:59:23;;;;;;;;;;;19.20;64.80;;;;;;4449037;32;20024;-83
2022/11/28 09:01:51;;;;;;;;;;;19.20;64.80;;;;;;4448460;32;20139;-83
2022/11/28 09:04:17;;;;;;;;;;;19.20;64.80;;;;;;4448601;32;19982;-84
2022/11/28 09:06:43;;;;;;;;;;;19.20;64.80;;;;;;4448441;32;20001;-83
2022/11/28 09:09:09;;;;;;;;;;;19.20;64.80;;;;;;4448405;32;20010;-83
2022/11/28 09:11:35;;;;;;;;;;;19.20;64.80;;;;;;4448361;32;19959;-85
2022/11/28 09:14:01;;;;;;;;;;;19.20;64.70;;;;;;4448344;32;19971;-83
2022/11/28 09:16:26;;;;;;;;;;;19.20;64.70;;;;;;4448277;32;20056;-83
2022/11/28 09:18:53;;;;;;;;;;;19.30;64.80;;;;;;4448176;32;19963;-85
2022/11/28 09:21:18;;;;;;;;;;;19.20;64.80;;;;;;4448259;32;20018;-85
2022/11/28 09:23:44;;;;;;;;;;;19.30;64.80;;;;;;4448291;32;20404;-85
2022/11/28 09:26:11;;;;;;;;;;;19.30;64.80;;;;;;4448462;32;19971;-85
2022/11/28 09:28:36;;;;;;;;;;;19.30;64.80;;;;;;4447931;32;20116;-84
2022/11/28 09:31:03;;;;;;;;;;;19.30;64.70;;;;;;4447915;32;19967;-85
2022/11/28 09:33:29;;;;;;;;;;;19.30;64.80;;;;;;4447751;32;20015;-84
2022/11/28 09:35:55;;;;;;;;;;;19.30;64.80;;;;;;4448096;32;19985;-84
2022/11/28 09:38:21;;;;;;;;;;;19.30;64.70;;;;;;4447977;32;19982;-85
2022/11/28 09:40:47;;;;;;;;;;;19.30;64.70;;;;;;4448006;32;20042;-85
2022/11/28 09:43:27;;;;;;;;;;;19.30;64.80;;;;;;4447693;32;19990;-85
2022/11/28 09:45:53;;;;;;;;;;;19.30;64.70;;;;;;4447321;32;19981;-82
2022/11/28 09:48:40;;;;;;;;;;;19.30;64.80;;;;;;4446296;32;20160;-84
2022/11/28 09:51:39;;;;;;;;;;;19.30;64.80;;;;;;4447004;32;20423;-85
2022/11/28 09:54:04;;;;;;;;;;;19.30;64.80;;;;;;4421108;32;19982;-86
2022/11/28 09:56:30;;;;;;;;;;;19.30;64.90;;;;;;4447381;32;19975;-85
2022/11/28 09:59:02;;;;;;;;;;;19.30;64.90;;;;;;4447774;32;20093;-84
2022/11/28 10:01:27;;;;;;;;;;;19.30;64.90;;;;;;4447622;32;19971;-84
2022/11/28 10:03:56;;;;;;;;;;;19.30;64.90;;;;;;4447633;32;20052;-84
2022/11/28 10:06:28;;;;;;;;;;;19.30;64.90;;;;;;4447511;32;19985;-86
2022/11/28 10:08:58;;;;;;;;;;;19.30;64.90;;;;;;4447609;32;19993;-84
2022/11/28 10:11:37;;;;;;;;;;;19.40;65.00;;;;;;4447552;32;20397;-82
2022/11/28 10:14:03;;;;;;;;;;;19.30;65.00;;;;;;4447439;32;19978;-83
2022/11/28 10:16:31;;;;;;;;;;;19.40;65.10;;;;;;4447568;32;19963;-87
2022/11/28 10:18:59;;;;;;;;;;;19.40;65.20;;;;;;4447444;32;19971;-84
2022/11/28 10:21:36;;;;;;;;;;;19.40;65.30;;;;;;4447224;32;20290;-85
2022/11/28 10:24:04;;;;;;;;;;;19.40;65.30;;;;;;4447244;32;20004;-85
2022/11/28 10:26:35;;;;;;;;;;;19.40;65.30;;;;;;4447239;32;20010;-82
2022/11/28 10:29:04;;;;;;;;;;;19.30;65.30;;;;;;4447229;32;19982;-85
2022/11/28 10:31:35;;;;;;;;;;;19.40;65.40;;;;;;4447379;32;20018;-83
2022/11/28 10:34:01;;;;;;;;;;;19.30;65.40;;;;;;4446812;32;20044;-85
2022/11/28 10:36:29;;;;;;;;;;;19.30;65.50;;;;;;4446830;32;20097;-84
2022/11/28 10:38:55;;;;;;;;;;;19.30;65.60;;;;;;4446965;32;19978;-81
2022/11/28 10:42:10;;;;;;;;;;;19.30;65.60;;;;;;4446793;32;19982;-84
2022/11/28 10:44:38;;;;;;;;;;;19.30;65.60;;;;;;4446867;32;19993;-84
2022/11/28 10:47:22;;;;;;;;;;;19.30;65.70;;;;;;4446941;32;20423;-83
2022/11/28 10:49:52;;;;;;;;;;;19.30;65.70;;;;;;4446540;32;19989;-85
2022/11/28 10:52:18;;;;;;;;;;;19.30;65.70;;;;;;4447013;32;19990;-87
2022/11/28 10:54:48;;;;;;;;;;;19.30;65.70;;;;;;4446507;32;19971;-83
2022/11/28 10:57:20;;;;;;;;;;;19.30;65.80;;;;;;4446957;32;20535;-88
2022/11/28 10:59:51;;;;;;;;;;;19.30;65.80;;;;;;4446789;32;19990;-88
2022/11/28 11:02:20;;;;;;;;;;;19.30;65.80;;;;;;4446865;32;20093;-86
2022/11/28 11:04:46;;;;;;;;;;;19.30;65.80;;;;;;4432486;32;19989;-88
2022/11/28 11:07:14;;;;;;;;;;;19.30;65.90;;;;;;4446614;32;19971;-81
2022/11/28 11:09:41;;;;;;;;;;;19.30;65.90;;;;;;4446852;32;20542;-82
2022/11/28 11:12:14;;;;;;;;;;;19.30;66.00;;;;;;4446627;32;19970;-81
2022/11/28 11:14:40;;;;;;;;;;;19.30;66.00;;;;;;4446765;32;20003;-81
2022/11/28 11:17:06;;;;;;;;;;;19.30;66.00;;;;;;4446417;32;20069;-83
2022/11/28 11:19:36;;;;;;;;;;;19.30;66.10;;;;;;4446364;32;19984;-84
2022/11/28 11:22:13;;;;;;;;;;;19.30;66.10;;;;;;4446343;32;20494;-84
2022/11/28 11:24:39;;;;;;;;;;;19.30;66.10;;;;;;4446456;32;20332;-83
2022/11/28 11:27:17;;;;;;;;;;;19.30;66.10;;;;;;4446460;32;20002;-84
2022/11/28 11:29:43;;;;;;;;;;;19.30;66.00;;;;;;4446409;32;20093;-83
2022/11/28 11:32:20;;;;;;;;;;;19.30;66.10;;;;;;4446260;32;20041;-81
2022/11/28 11:34:46;;;;;;;;;;;19.30;66.10;;;;;;4445872;32;20116;-78
2022/11/28 11:37:27;;;;;;;;;;;19.30;66.10;;;;;;4432361;32;20096;-80
2022/11/28 11:39:53;;;;;;;;;;;19.30;66.10;;;;;;4446245;32;20085;-79
2022/11/28 11:42:23;;;;;;;;;;;19.30;66.10;;;;;;4446134;32;20080;-79
2022/11/28 11:44:49;;;;;;;;;;;19.30;66.20;;;;;;4446324;32;19978;-78
2022/11/28 11:47:15;;;;;;;;;;;19.30;66.20;;;;;;4446020;32;20052;-82
2022/11/28 11:49:42;;;;;;;;;;;19.30;66.20;;;;;;4446253;32;20415;-83
2022/11/28 11:52:08;;;;;;;;;;;19.30;66.20;;;;;;4445843;32;20040;-82
2022/11/28 11:54:34;;;;;;;;;;;19.30;66.20;;;;;;4445897;32;20112;-84
2022/11/28 11:57:00;;;;;;;;;;;19.30;66.20;;;;;;4445695;32;20065;-81
2022/11/28 11:59:44;;;;;;;;;;;19.30;66.30;;;;;;4432071;32;20077;-82
2022/11/28 12:02:18;;;;;;;;;;;19.40;66.30;;;;;;4445923;32;20112;-82
2022/11/28 12:04:48;;;;;;;;;;;19.40;66.30;;;;;;4445680;32;20010;-79
2022/11/28 12:07:24;;;;;;;;;;;19.40;66.40;;;;;;4445630;32;20042;-79
2022/11/28 12:09:51;;;;;;;;;;;19.40;66.30;;;;;;4446084;32;20037;-78
2022/11/28 12:12:21;;;;;;;;;;;19.40;66.40;;;;;;4445583;32;19990;-82
2022/11/28 12:14:48;;;;;;;;;;;19.40;66.30;;;;;;4445851;32;20149;-83
2022/11/28 12:17:14;;;;;;;;;;;19.30;66.30;;;;;;4445890;32;20092;-83
2022/11/28 12:19:57;;;;;;;;;;;19.40;66.40;;;;;;4445983;32;20151;-83
2022/11/28 12:22:33;;;;;;;;;;;19.30;66.30;;;;;;4445643;32;19982;-79
2022/11/28 12:25:03;;;;;;;;;;;19.30;66.30;;;;;;4446112;32;20416;-81
2022/11/28 12:27:34;;;;;;;;;;;19.30;66.30;;;;;;4446282;32;19989;-80
2022/11/28 12:30:03;;;;;;;;;;;19.30;66.40;;;;;;4445767;32;20014;-74
2022/11/28 12:32:54;;;;;;;;;;;19.30;66.40;;;;;;4445668;32;19971;-78
2022/11/28 12:35:26;;;;;;;;;;;19.30;66.50;;;;;;4426903;32;20030;-81
2022/11/28 12:38:00;;;;;;;;;;;19.30;66.50;;;;;;4445607;32;20032;-78
2022/11/28 12:40:45;;;;;;;;;;;19.30;66.50;;;;;;4445683;32;19982;-79
2022/11/28 12:43:13;;;;;;;;;;;19.30;66.40;;;;;;4445835;32;20443;-81
2022/11/28 12:45:45;;;;;;;;;;;19.40;66.50;;;;;;4445425;32;19974;-82
2022/11/28 12:48:30;;;;;;;;;;;19.40;66.40;;;;;;4445649;32;20018;-82
2022/11/28 12:50:59;;;;;;;;;;;19.40;66.40;;;;;;4445780;32;20439;-82
2022/11/28 12:53:28;;;;;;;;;;;19.40;66.40;;;;;;4445766;32;20506;-82
2022/11/28 12:56:12;;;;;;;;;;;19.40;66.40;;;;;;4445383;32;20137;-81
2022/11/28 12:58:53;;;;;;;;;;;19.40;66.40;;;;;;4445544;32;19983;-82
2022/11/28 13:01:21;;;;;;;;;;;19.40;66.40;;;;;;4445736;32;19988;-83
2022/11/28 13:03:53;;;;;;;;;;;19.50;66.40;;;;;;4445550;32;19974;-84
2022/11/28 13:06:37;;;;;;;;;;;19.40;66.40;;;;;;4445804;32;19989;-84
2022/11/28 13:09:15;;;;;;;;;;;19.50;66.40;;;;;;4445856;32;20044;-85
2022/11/28 13:11:44;;;;;;;;;;;19.50;66.40;;;;;;4445280;32;20018;-84
2022/11/28 13:14:30;;;;;;;;;;;19.50;66.40;;;;;;4445406;32;20033;-83
2022/11/28 13:17:00;;;;;;;;;;;19.50;66.60;;;;;;4445267;32;19978;-84
2022/11/28 13:19:45;;;;;;;;;;;19.40;66.50;;;;;;4446598;32;20388;-85
2022/11/28 13:22:23;;;;;;;;;;;19.50;66.50;;;;;;4448299;32;20092;-83
2022/11/28 13:24:49;;;;;;;;;;;19.50;66.60;;;;;;4448398;32;19986;-84
2022/11/28 13:27:24;;;;;;;;;;;19.40;66.50;;;;;;4448316;32;20160;-82
2022/11/28 13:29:59;;;;;;;;;;;19.50;66.60;;;;;;4448212;32;20021;-83
2022/11/28 13:32:28;;;;;;;;;;;19.40;66.60;;;;;;4447904;32;19983;-81
2022/11/28 13:34:53;;;;;;;;;;;19.40;66.60;;;;;;4447713;32;20107;-83
2022/11/28 13:37:38;;;;;;;;;;;19.40;66.70;;;;;;4448133;32;19977;-83
2022/11/28 13:40:06;;;;;;;;;;;19.40;66.80;;;;;;4433861;32;20055;-82
2022/11/28 13:42:38;;;;;;;;;;;19.40;66.80;;;;;;4447807;32;19975;-83
2022/11/28 13:45:06;;;;;;;;;;;19.40;66.80;;;;;;4448103;32;20061;-85
2022/11/28 13:47:33;;;;;;;;;;;19.40;66.90;;;;;;4447727;32;19970;-78
2022/11/28 13:50:18;;;;;;;;;;;19.40;67.00;;;;;;4448036;32;20455;-79
2022/11/28 13:52:43;;;;;;;;;;;19.40;67.00;;;;;;4447746;32;20044;-77
2022/11/28 13:55:43;;;;;;;;;;;19.40;67.00;;;;;;4447636;32;20098;-79
2022/11/28 13:58:27;;;;;;;;;;;19.40;67.00;;;;;;4422270;32;20012;-81
2022/11/28 14:01:05;;;;;;;;;;;19.40;67.10;;;;;;4448053;32;20400;-82
2022/11/28 14:03:32;;;;;;;;;;;19.40;67.10;;;;;;4447610;32;20099;-83
2022/11/28 14:06:00;;;;;;;;;;;19.40;67.20;;;;;;4447570;32;20037;-82
2022/11/28 14:08:36;;;;;;;;;;;19.40;67.20;;;;;;4447599;32;19982;-80
2022/11/28 14:11:05;;;;;;;;;;;19.40;67.30;;;;;;4447381;32;20042;-83
2022/11/28 14:13:36;;;;;;;;;;;19.40;67.30;;;;;;4447099;32;20212;-81
2022/11/28 14:16:13;;;;;;;;;;;19.40;67.30;;;;;;4447426;32;19983;-82
2022/11/28 14:18:55;;;;;;;;;;;19.40;67.20;;;;;;4446147;32;20056;-83
2022/11/28 14:21:40;;;;;;;;;;;19.40;67.10;;;;;;4433420;32;19987;-82
2022/11/28 14:24:08;;;;;;;;;;;19.50;67.10;;;;;;4447421;32;20403;-82
2022/11/28 14:26:35;;;;;;;;;;;19.50;67.00;;;;;;4447359;32;19978;-81
2022/11/28 14:29:03;;;;;;;;;;;19.50;67.00;;;;;;4447118;32;19994;-82